createdAt,value
2022-11-16T05:26:52.293Z,0.00
2022-11-16T05:27:52.225Z,0.00
2022-11-16T05:28:52.217Z,0.00
2022-11-16T05:29:52.213Z,0.00
2022-11-16T05:30:52.218Z,0.00
2022-11-16T05:31:52.190Z,0.00
2022-11-16T05:32:52.176Z,0.00
2022-11-16T05:33:52.193Z,0.00
2022-11-16T05:34:52.164Z,0.00
2022-11-16T05:35:52.144Z,0.00
2022-11-16T05:36:52.131Z,0.00
2022-11-16T05:38:17.286Z,0.00
2022-11-16T05:39:17.278Z,0.00
2022-11-16T05:40:18.952Z,0.00
2022-11-16T05:41:17.240Z,0.00
2022-11-16T05:42:17.240Z,0.00
2022-11-16T05:43:17.273Z,0.00
2022-11-16T05:44:17.218Z,0.00
2022-11-16T05:45:20.885Z,0.00
2022-11-16T05:46:17.190Z,0.00
2022-11-16T05:47:17.186Z,0.00
2022-11-16T05:48:17.157Z,0.00
2022-11-16T05:49:17.182Z,0.00
2022-11-16T05:50:17.141Z,0.00
2022-11-16T05:51:17.136Z,0.00
2022-11-16T05:52:17.111Z,0.00
2022-11-16T05:53:17.123Z,0.00
2022-11-16T05:54:17.092Z,0.00
2022-11-16T05:55:17.110Z,0.00
2022-11-16T05:56:17.124Z,0.00
2022-11-16T05:57:17.114Z,0.00
2022-11-16T05:58:17.064Z,0.00
2022-11-16T05:59:17.069Z,0.00
2022-11-16T06:00:17.039Z,0.00
2022-11-16T06:01:17.027Z,0.00
2022-11-16T06:02:17.024Z,0.00
2022-11-16T06:03:17.034Z,0.00
2022-11-16T06:04:38.021Z,0.00
2022-11-16T06:05:16.982Z,0.00
2022-11-16T06:06:16.978Z,0.00
2022-11-16T06:07:17.022Z,0.00
2022-11-16T06:08:16.971Z,0.00
2022-11-16T06:09:16.930Z,0.00
2022-11-16T06:10:16.938Z,0.00
2022-11-16T06:11:16.908Z,0.00
2022-11-16T06:12:16.906Z,0.00
2022-11-16T06:13:16.899Z,0.00
2022-11-16T06:14:16.881Z,0.00
2022-11-16T06:15:16.887Z,0.00
2022-11-16T06:16:16.878Z,0.00
2022-11-16T06:17:16.859Z,0.00
2022-11-16T06:18:16.861Z,0.00
2022-11-16T06:19:16.852Z,0.00
2022-11-16T06:20:16.814Z,0.00
2022-11-16T06:21:16.803Z,0.00
2022-11-16T06:22:16.796Z,0.00
2022-11-16T06:23:16.777Z,0.00
2022-11-16T06:24:16.807Z,4.00
2022-11-16T06:25:16.772Z,4.00
2022-11-16T06:26:16.762Z,0.00
2022-11-16T06:27:16.755Z,4.00
2022-11-16T06:28:16.852Z,4.00
2022-11-16T06:29:16.727Z,8.00
2022-11-16T06:30:16.720Z,4.00
2022-11-16T06:31:16.695Z,8.00
2022-11-16T06:32:16.681Z,4.00
2022-11-16T06:33:16.672Z,8.00
2022-11-16T06:34:16.663Z,12.00
2022-11-16T06:35:16.692Z,8.00
2022-11-16T06:36:16.653Z,12.00
2022-11-16T06:37:16.636Z,12.00
2022-11-16T06:38:16.633Z,12.00
2022-11-16T06:39:16.604Z,16.00
2022-11-16T06:40:16.590Z,16.00
2022-11-16T06:41:16.591Z,16.00
2022-11-16T06:42:16.561Z,24.00
2022-11-16T06:43:16.563Z,24.00
2022-11-16T06:44:16.560Z,24.00
2022-11-16T06:45:16.551Z,28.00
2022-11-16T06:46:16.533Z,28.00
2022-11-16T06:47:16.523Z,36.00
2022-11-16T06:48:16.525Z,40.00
2022-11-16T06:49:16.524Z,40.00
2022-11-16T06:50:16.501Z,48.00
2022-11-16T06:51:16.513Z,48.00
2022-11-16T06:52:16.523Z,52.00
2022-11-16T06:53:16.460Z,56.00
2022-11-16T06:54:16.440Z,60.00
2022-11-16T06:55:16.452Z,68.00
2022-11-16T06:56:16.449Z,68.00
2022-11-16T06:57:16.454Z,76.00
2022-11-16T06:58:16.384Z,80.00
2022-11-16T06:59:16.753Z,84.00
2022-11-16T07:00:16.372Z,92.00
2022-11-16T07:01:16.446Z,100.00
2022-11-16T07:02:16.375Z,104.00
2022-11-16T07:03:16.340Z,112.00
2022-11-16T07:04:16.352Z,120.00
2022-11-16T07:05:16.330Z,124.00
2022-11-16T07:06:16.335Z,132.00
2022-11-16T07:07:16.377Z,132.00
2022-11-16T07:08:16.296Z,140.00
2022-11-16T07:09:16.270Z,148.00
2022-11-16T07:10:16.288Z,152.00
2022-11-16T07:11:16.259Z,160.00
2022-11-16T07:12:16.246Z,168.00
2022-11-16T07:13:16.242Z,176.00
2022-11-16T07:14:16.227Z,188.00
2022-11-16T07:15:16.223Z,196.00
2022-11-16T07:16:16.185Z,216.00
2022-11-16T07:17:16.196Z,228.00
2022-11-16T07:18:16.182Z,236.00
2022-11-16T07:19:16.173Z,244.00
2022-11-16T07:20:16.155Z,256.00
2022-11-16T07:21:16.160Z,264.00
2022-11-16T07:22:16.151Z,280.00
2022-11-16T07:23:16.132Z,292.00
2022-11-16T07:24:16.108Z,308.00
2022-11-16T07:25:16.167Z,320.00
2022-11-16T07:26:16.111Z,336.00
2022-11-16T07:27:16.082Z,360.00
2022-11-16T07:28:16.072Z,376.00
2022-11-16T07:29:16.064Z,396.00
2022-11-16T07:30:16.080Z,416.00
2022-11-16T07:31:16.062Z,440.00
2022-11-16T07:32:16.042Z,460.00
2022-11-16T07:33:16.040Z,480.00
2022-11-16T07:34:16.005Z,496.00
2022-11-16T07:35:16.011Z,508.00
2022-11-16T07:36:16.005Z,528.00
2022-11-16T07:37:15.977Z,552.00
2022-11-16T07:38:18.103Z,568.00
2022-11-16T07:39:15.971Z,584.00
2022-11-16T07:40:15.946Z,596.00
2022-11-16T07:41:16.078Z,612.00
2022-11-16T07:42:15.938Z,628.00
2022-11-16T07:43:15.940Z,652.00
2022-11-16T07:44:15.900Z,680.00
2022-11-16T07:45:15.902Z,708.00
2022-11-16T07:47:16.874Z,756.00
2022-11-16T07:48:15.864Z,784.00
2022-11-16T07:49:15.845Z,808.00
2022-11-16T07:50:15.832Z,832.00
2022-11-16T07:51:15.838Z,856.00
2022-11-16T07:52:15.812Z,880.00
2022-11-16T07:53:15.814Z,896.00
2022-11-16T07:54:15.801Z,904.00
2022-11-16T07:55:15.782Z,900.00
2022-11-16T07:56:15.781Z,884.00
2022-11-16T07:57:15.756Z,860.00
2022-11-16T07:58:15.751Z,832.00
2022-11-16T07:59:15.746Z,852.00
2022-11-16T08:00:15.733Z,860.00
2022-11-16T08:01:16.332Z,848.00
2022-11-16T08:02:15.762Z,844.00
2022-11-16T08:03:18.197Z,856.00
2022-11-16T08:04:16.680Z,896.00
2022-11-16T08:05:15.696Z,940.00
2022-11-16T08:06:15.669Z,980.00
2022-11-16T08:07:15.681Z,996.00
2022-11-16T08:08:15.632Z,984.00
2022-11-16T08:09:15.627Z,992.00
2022-11-16T08:10:15.649Z,1024.00
2022-11-16T08:11:15.605Z,1056.00
2022-11-16T08:12:15.610Z,1092.00
2022-11-16T08:13:15.593Z,1116.00
2022-11-16T08:14:15.573Z,1124.00
2022-11-16T08:15:15.560Z,1116.00
2022-11-16T08:16:15.560Z,1092.00
2022-11-16T08:17:15.572Z,1076.00
2022-11-16T08:18:15.543Z,1072.00
2022-11-16T08:19:15.519Z,1076.00
2022-11-16T08:20:15.499Z,1084.00
2022-11-16T08:21:15.506Z,1072.00
2022-11-16T08:22:15.514Z,1040.00
2022-11-16T08:23:15.504Z,1004.00
2022-11-16T08:24:15.460Z,972.00
2022-11-16T08:25:15.460Z,964.00
2022-11-16T08:26:15.451Z,976.00
2022-11-16T08:27:15.454Z,1012.00
2022-11-16T08:28:15.459Z,1044.00
2022-11-16T08:29:15.415Z,1072.00
2022-11-16T08:30:15.396Z,1080.00
2022-11-16T08:31:15.416Z,1064.00
2022-11-16T08:32:15.459Z,1040.00
2022-11-16T08:33:15.374Z,1000.00
2022-11-16T08:34:15.370Z,960.00
2022-11-16T08:35:15.362Z,932.00
2022-11-16T08:36:15.331Z,912.00
2022-11-16T08:37:15.329Z,900.00
2022-11-16T08:38:15.315Z,908.00
2022-11-16T08:39:15.308Z,920.00
2022-11-16T08:40:15.307Z,928.00
2022-11-16T08:41:15.318Z,936.00
2022-11-16T08:42:15.264Z,952.00
2022-11-16T08:43:15.265Z,968.00
2022-11-16T08:44:15.257Z,988.00
2022-11-16T08:45:15.232Z,1004.00
2022-11-16T08:46:15.220Z,1020.00
2022-11-16T08:47:15.214Z,1028.00
2022-11-16T08:48:15.200Z,1052.00
2022-11-16T08:49:15.223Z,1088.00
2022-11-16T08:50:15.182Z,1140.00
2022-11-16T08:51:17.972Z,1172.00
2022-11-16T08:52:15.160Z,1184.00
2022-11-16T08:53:15.151Z,1200.00
2022-11-16T08:54:15.163Z,1228.00
2022-11-16T08:55:15.139Z,1256.00
2022-11-16T08:56:15.215Z,1292.00
2022-11-16T08:57:15.130Z,1340.00
2022-11-16T08:58:15.108Z,1408.00
2022-11-16T08:59:15.108Z,1488.00
2022-11-16T09:00:15.092Z,1572.00
2022-11-16T09:01:15.150Z,1648.00
2022-11-16T09:02:15.153Z,1720.00
2022-11-16T09:03:16.273Z,1792.00
2022-11-16T09:04:15.049Z,1860.00
2022-11-16T09:05:15.016Z,1936.00
2022-11-16T09:06:15.011Z,2008.00
2022-11-16T09:07:15.049Z,2080.00
2022-11-16T09:08:15.007Z,2144.00
2022-11-16T09:09:14.969Z,2188.00
2022-11-16T09:10:14.953Z,2212.00
2022-11-16T09:11:14.941Z,2216.00
2022-11-16T09:12:14.961Z,2204.00
2022-11-16T09:13:14.925Z,2188.00
2022-11-16T09:14:14.929Z,2192.00
2022-11-16T09:15:14.914Z,2196.00
2022-11-16T09:16:14.892Z,2216.00
2022-11-16T09:17:18.799Z,2252.00
2022-11-16T09:18:15.892Z,2312.00
2022-11-16T09:19:14.860Z,2392.00
2022-11-16T09:20:14.838Z,2492.00
2022-11-16T09:21:14.852Z,2584.00
2022-11-16T09:22:14.827Z,2672.00
2022-11-16T09:23:14.829Z,2748.00
2022-11-16T09:24:14.810Z,2816.00
2022-11-16T09:25:14.818Z,2888.00
2022-11-16T09:26:14.898Z,2952.00
2022-11-16T09:27:14.773Z,3000.00
2022-11-16T09:28:14.775Z,3016.00
2022-11-16T09:29:14.746Z,3048.00
2022-11-16T09:30:14.742Z,3092.00
2022-11-16T09:31:18.819Z,3148.00
2022-11-16T09:32:15.733Z,3220.00
2022-11-16T09:33:14.711Z,3276.00
2022-11-16T09:34:14.832Z,3324.00
2022-11-16T09:35:14.702Z,3376.00
2022-11-16T09:36:14.704Z,3452.00
2022-11-16T09:37:14.654Z,3552.00
2022-11-16T09:38:19.740Z,3704.00
2022-11-16T09:39:32.007Z,3880.00
2022-11-16T09:40:15.630Z,4044.00
2022-11-16T09:41:14.731Z,4212.00
2022-11-16T09:42:14.620Z,4356.00
2022-11-16T09:43:14.601Z,4592.00
2022-11-16T09:44:14.583Z,4800.00
2022-11-16T09:45:14.590Z,4808.00
2022-11-16T09:46:14.591Z,4540.00
2022-11-16T09:47:14.596Z,4340.00
2022-11-16T09:48:14.533Z,4244.00
2022-11-16T09:49:17.499Z,4232.00
2022-11-16T09:50:14.523Z,4160.00
2022-11-16T09:51:14.525Z,4156.00
2022-11-16T09:52:14.492Z,4284.00
2022-11-16T09:53:14.493Z,4316.00
2022-11-16T09:54:14.483Z,4184.00
2022-11-16T09:55:16.089Z,3908.00
2022-11-16T09:56:19.163Z,3596.00
2022-11-16T09:57:15.453Z,3380.00
2022-11-16T09:58:14.432Z,3232.00
2022-11-16T09:59:18.133Z,2964.00
2022-11-16T10:00:14.416Z,2708.00
2022-11-16T10:01:14.429Z,2484.00
2022-11-16T10:02:14.387Z,2332.00
2022-11-16T10:03:14.383Z,2116.00
2022-11-16T10:04:14.360Z,1784.00
2022-11-16T10:05:14.447Z,1512.00
2022-11-16T10:06:14.389Z,1324.00
2022-11-16T10:07:14.423Z,1232.00
2022-11-16T10:08:14.351Z,1256.00
2022-11-16T10:09:14.330Z,1360.00
2022-11-16T10:10:14.305Z,1476.00
2022-11-16T10:11:14.382Z,1552.00
2022-11-16T10:12:14.292Z,1568.00
2022-11-16T10:13:14.282Z,1572.00
2022-11-16T10:14:14.255Z,1580.00
2022-11-16T10:15:14.255Z,1492.00
2022-11-16T10:16:14.308Z,1356.00
2022-11-16T10:17:14.228Z,1380.00
2022-11-16T10:18:14.235Z,1620.00
2022-11-16T10:19:14.211Z,2128.00
2022-11-16T10:20:14.189Z,2748.00
2022-11-16T10:21:14.279Z,3320.00
2022-11-16T10:22:14.176Z,3908.00
2022-11-16T10:23:14.215Z,4476.00
2022-11-16T10:24:14.160Z,4972.00
2022-11-16T10:25:14.152Z,5384.00
2022-11-16T10:26:14.135Z,5788.00
2022-11-16T10:27:17.865Z,6132.00
2022-11-16T10:28:15.093Z,6152.00
2022-11-16T10:29:14.092Z,5944.00
2022-11-16T10:30:14.082Z,5700.00
2022-11-16T10:31:14.180Z,5608.00
2022-11-16T10:32:14.055Z,5660.00
2022-11-16T10:33:14.048Z,5892.00
2022-11-16T10:34:14.052Z,6504.00
2022-11-16T10:35:14.064Z,7164.00
2022-11-16T10:36:14.071Z,8016.00
2022-11-16T10:37:14.006Z,7260.00
2022-11-16T10:38:14.003Z,7232.00
2022-11-16T10:39:13.982Z,6924.00
2022-11-16T10:40:13.974Z,6108.00
2022-11-16T10:41:14.008Z,5336.00
2022-11-16T10:42:13.972Z,4696.00
2022-11-16T10:43:13.942Z,4144.00
2022-11-16T10:44:13.924Z,3780.00
2022-11-16T10:45:13.915Z,3544.00
2022-11-16T10:46:13.911Z,3412.00
2022-11-16T10:47:13.897Z,3336.00
2022-11-16T10:48:13.893Z,3332.00
2022-11-16T10:49:13.883Z,3384.00
2022-11-16T10:50:13.865Z,3436.00
2022-11-16T10:51:13.868Z,3512.00
2022-11-16T10:52:13.862Z,3568.00
2022-11-16T10:53:13.824Z,3540.00
2022-11-16T10:54:13.830Z,3448.00
2022-11-16T10:55:13.802Z,3384.00
2022-11-16T10:56:13.827Z,3284.00
2022-11-16T10:57:13.794Z,3028.00
2022-11-16T10:58:13.784Z,2712.00
2022-11-16T10:59:13.765Z,2456.00
2022-11-16T11:00:17.135Z,2304.00
2022-11-16T11:01:15.314Z,2176.00
2022-11-16T11:02:13.734Z,2068.00
2022-11-16T11:03:13.714Z,1964.00
2022-11-16T11:04:13.756Z,1920.00
2022-11-16T11:05:13.706Z,1984.00
2022-11-16T11:06:13.705Z,2060.00
2022-11-16T11:07:14.064Z,2068.00
2022-11-16T11:08:13.661Z,2056.00
2022-11-16T11:09:13.650Z,2176.00
2022-11-16T11:10:13.656Z,2376.00
2022-11-16T11:11:13.667Z,2536.00
2022-11-16T11:12:13.615Z,2600.00
2022-11-16T11:13:13.612Z,2580.00
2022-11-16T11:14:13.616Z,2520.00
2022-11-16T11:15:13.576Z,2472.00
2022-11-16T11:16:13.578Z,2436.00
2022-11-16T11:17:13.595Z,2444.00
2022-11-16T11:18:13.627Z,2520.00
2022-11-16T11:19:13.552Z,2604.00
2022-11-16T11:20:13.534Z,2764.00
2022-11-16T11:21:13.525Z,3068.00
2022-11-16T11:22:13.551Z,3492.00
2022-11-16T11:23:13.502Z,3800.00
2022-11-16T11:24:42.798Z,4100.00
2022-11-16T11:25:14.483Z,4628.00
2022-11-16T11:26:13.471Z,5480.00
2022-11-16T11:27:13.465Z,6468.00
2022-11-16T11:28:13.452Z,7108.00
2022-11-16T11:29:13.443Z,7184.00
2022-11-16T11:30:13.448Z,7252.00
2022-11-16T11:31:13.419Z,7636.00
2022-11-16T11:32:13.407Z,7884.00
2022-11-16T11:33:13.387Z,7328.00
2022-11-16T11:34:13.394Z,7632.00
2022-11-16T11:35:13.361Z,7100.00
2022-11-16T11:36:13.370Z,6496.00
2022-11-16T11:37:13.354Z,6360.00
2022-11-16T11:38:13.398Z,6524.00
2022-11-16T11:39:13.412Z,7524.00
2022-11-16T11:40:13.315Z,9480.00
2022-11-16T11:41:13.302Z,9996.00
2022-11-16T11:42:13.296Z,7808.00
2022-11-16T11:43:18.702Z,7284.00
2022-11-16T11:44:14.264Z,6900.00
2022-11-16T11:45:13.266Z,6764.00
2022-11-16T11:46:13.277Z,6508.00
2022-11-16T11:48:14.242Z,6424.00
2022-11-16T11:49:13.230Z,6948.00
2022-11-16T11:50:13.205Z,8796.00
2022-11-16T11:51:13.202Z,13352.00
2022-11-16T11:52:13.174Z,15840.00
2022-11-16T11:53:13.165Z,45216.00
2022-11-16T11:54:13.156Z,36000.00
2022-11-16T11:55:13.147Z,59232.00
2022-11-16T11:56:13.142Z,65376.00
2022-11-16T11:57:13.123Z,60832.00
2022-11-16T11:58:13.126Z,30080.00
2022-11-16T11:59:13.650Z,21472.00
2022-11-16T12:00:13.101Z,21120.00
2022-11-16T12:01:13.107Z,35040.00
2022-11-16T12:02:13.074Z,52512.00
2022-11-16T12:03:13.132Z,57536.00
2022-11-16T12:04:13.045Z,44096.00
2022-11-16T12:05:13.060Z,53056.00
2022-11-16T12:06:13.029Z,47200.00
2022-11-16T12:07:13.074Z,33888.00
2022-11-16T12:08:13.010Z,62624.00
2022-11-16T12:09:13.101Z,70432.00
2022-11-16T12:10:13.067Z,59200.00
2022-11-16T12:11:12.975Z,50144.00
2022-11-16T12:12:14.854Z,66400.00
2022-11-16T12:13:12.947Z,67680.00
2022-11-16T12:14:12.938Z,71776.00
2022-11-16T12:15:12.929Z,71392.00
2022-11-16T12:16:12.925Z,59360.00
2022-11-16T12:17:12.903Z,68608.00
2022-11-16T12:18:12.903Z,68352.00
2022-11-16T12:19:12.884Z,74880.00
2022-11-16T12:20:13.002Z,81408.00
2022-11-16T12:21:12.865Z,85664.00
2022-11-16T12:22:12.877Z,82304.00
2022-11-16T12:23:12.849Z,79776.00
2022-11-16T12:24:12.838Z,58240.00
2022-11-16T12:25:12.828Z,59104.00
2022-11-16T12:26:12.825Z,25216.00
2022-11-16T12:27:12.791Z,68512.00
2022-11-16T12:28:12.773Z,79072.00
2022-11-16T12:29:12.787Z,80192.00
2022-11-16T12:30:12.821Z,80928.00
2022-11-16T12:31:12.745Z,80448.00
2022-11-16T12:32:12.759Z,81728.00
2022-11-16T12:33:12.730Z,81248.00
2022-11-16T12:34:12.757Z,81888.00
2022-11-16T12:35:12.755Z,80608.00
2022-11-16T12:36:12.709Z,78080.00
2022-11-16T12:37:12.692Z,76352.00
2022-11-16T12:38:12.684Z,72512.00
2022-11-16T12:39:12.659Z,61600.00
2022-11-16T12:40:12.766Z,70912.00
2022-11-16T12:41:12.651Z,66816.00
2022-11-16T12:42:12.627Z,67552.00
2022-11-16T12:43:12.624Z,69504.00
2022-11-16T12:44:12.600Z,65280.00
2022-11-16T12:45:12.597Z,68992.00
2022-11-16T12:46:12.593Z,68416.00
2022-11-16T12:47:12.588Z,68320.00
2022-11-16T12:48:12.563Z,66752.00
2022-11-16T12:49:12.568Z,62912.00
2022-11-16T12:50:12.618Z,61632.00
2022-11-16T12:51:12.532Z,62400.00
2022-11-16T12:52:12.526Z,65280.00
2022-11-16T12:53:12.500Z,65600.00
2022-11-16T12:54:12.500Z,64064.00
2022-11-16T12:55:25.768Z,61568.00
2022-11-16T12:56:13.511Z,62784.00
2022-11-16T12:57:12.479Z,63200.00
2022-11-16T12:58:12.466Z,62176.00
2022-11-16T12:59:12.446Z,62112.00
2022-11-16T13:00:12.499Z,62144.00
2022-11-16T13:01:12.474Z,47296.00
2022-11-16T13:02:12.415Z,56864.00
2022-11-16T13:03:12.421Z,52672.00
2022-11-16T13:04:12.393Z,53568.00
2022-11-16T13:05:12.395Z,51680.00
2022-11-16T13:06:12.388Z,53152.00
2022-11-16T13:07:12.400Z,52352.00
2022-11-16T13:08:12.363Z,55264.00
2022-11-16T13:09:12.358Z,56000.00
2022-11-16T13:10:12.332Z,51808.00
2022-11-16T13:11:12.510Z,49472.00
2022-11-16T13:12:12.332Z,46432.00
2022-11-16T13:13:35.484Z,48544.00
2022-11-16T13:14:13.292Z,49856.00
2022-11-16T13:15:12.254Z,50496.00
2022-11-16T13:16:12.270Z,49184.00
2022-11-16T13:17:12.249Z,46048.00
2022-11-16T13:18:12.249Z,39936.00
2022-11-16T13:19:12.225Z,33568.00
2022-11-16T13:20:15.047Z,33440.00
2022-11-16T13:21:12.221Z,35392.00
2022-11-16T13:22:12.185Z,24160.00
2022-11-16T13:23:12.193Z,17408.00
2022-11-16T13:24:12.176Z,24320.00
2022-11-16T13:25:12.174Z,15520.00
2022-11-16T13:26:12.168Z,13928.00
2022-11-16T13:27:12.141Z,12008.00
2022-11-16T13:28:12.143Z,11748.00
2022-11-16T13:29:12.162Z,19488.00
2022-11-16T13:30:12.112Z,27712.00
2022-11-16T13:31:12.096Z,15840.00
2022-11-16T13:32:12.100Z,35008.00
2022-11-16T13:33:12.073Z,29344.00
2022-11-16T13:34:12.054Z,24896.00
2022-11-16T13:35:12.072Z,28128.00
2022-11-16T13:36:12.208Z,25184.00
2022-11-16T13:37:12.027Z,22816.00
2022-11-16T13:38:12.029Z,18592.00
2022-11-16T13:39:15.767Z,12612.00
2022-11-16T13:41:50.700Z,11184.00
2022-11-16T13:42:50.555Z,9816.00
2022-11-16T13:43:52.485Z,9464.00
2022-11-16T13:44:51.743Z,9500.00
2022-11-16T13:45:50.521Z,9364.00
2022-11-16T13:46:57.685Z,9336.00
2022-11-16T13:47:51.463Z,9224.00
2022-11-16T13:48:50.718Z,10360.00
2022-11-16T13:49:50.498Z,10640.00
2022-11-16T13:50:50.433Z,9940.00
2022-11-16T13:51:50.424Z,9200.00
2022-11-16T13:54:52.005Z,11396.00
2022-11-16T13:55:50.384Z,16960.00
2022-11-16T13:56:50.352Z,27520.00
2022-11-16T13:57:50.338Z,32320.00
2022-11-16T13:58:50.312Z,34752.00
2022-11-16T13:59:50.328Z,31136.00
2022-11-16T14:00:50.401Z,46624.00
2022-11-16T14:01:50.313Z,44832.00
2022-11-16T14:02:50.323Z,45856.00
2022-11-16T14:03:50.378Z,45824.00
2022-11-16T14:04:50.304Z,52192.00
2022-11-16T14:05:50.255Z,56544.00
2022-11-16T14:06:50.323Z,55008.00
2022-11-16T14:07:50.249Z,53344.00
2022-11-16T14:08:50.248Z,56416.00
2022-11-16T14:09:50.215Z,59968.00
2022-11-16T14:10:50.216Z,59136.00
2022-11-16T14:11:50.256Z,56672.00
2022-11-16T14:12:50.309Z,48416.00
2022-11-16T14:13:50.210Z,39776.00
2022-11-16T14:14:50.210Z,36160.00
2022-11-16T14:15:50.152Z,34368.00
2022-11-16T14:16:50.201Z,30048.00
2022-11-16T14:17:50.239Z,28672.00
2022-11-16T14:18:50.184Z,28608.00
2022-11-16T14:19:50.178Z,25472.00
2022-11-16T14:20:50.153Z,23264.00
2022-11-16T14:21:50.142Z,22752.00
2022-11-16T14:22:50.317Z,22304.00
2022-11-16T14:23:50.070Z,18400.00
2022-11-16T14:24:50.104Z,19488.00
2022-11-16T14:25:50.073Z,23456.00
2022-11-16T14:26:50.012Z,31360.00
2022-11-16T14:27:50.016Z,22624.00
2022-11-16T14:28:50.169Z,37824.00
2022-11-16T14:29:50.047Z,44384.00
2022-11-16T14:30:49.977Z,34816.00
2022-11-16T14:31:50.064Z,21152.00
2022-11-16T14:32:49.979Z,19904.00
2022-11-16T14:33:50.051Z,15712.00
2022-11-16T14:34:49.932Z,10908.00
2022-11-16T14:35:49.965Z,13504.00
2022-11-16T14:36:49.932Z,23552.00
2022-11-16T14:37:49.950Z,20064.00
2022-11-16T14:38:49.911Z,16992.00
2022-11-16T14:39:49.912Z,12116.00
2022-11-16T14:40:51.673Z,20544.00
2022-11-16T14:41:49.960Z,27744.00
2022-11-16T14:43:14.789Z,34304.00
2022-11-16T14:43:50.945Z,35488.00
2022-11-16T14:44:49.883Z,35104.00
2022-11-16T14:45:49.829Z,33280.00
2022-11-16T14:46:49.895Z,32736.00
2022-11-16T14:47:49.861Z,31712.00
2022-11-16T14:48:49.762Z,29728.00
2022-11-16T14:49:50.038Z,28736.00
2022-11-16T14:50:49.794Z,28096.00
2022-11-16T14:51:49.816Z,26592.00
2022-11-16T14:52:49.812Z,24640.00
2022-11-16T14:53:49.737Z,24960.00
2022-11-16T14:54:49.826Z,22432.00
2022-11-16T14:55:49.754Z,22720.00
2022-11-16T14:56:50.039Z,22688.00
2022-11-16T14:57:49.736Z,20928.00
2022-11-16T14:58:49.733Z,18976.00
2022-11-16T14:59:49.705Z,18368.00
2022-11-16T15:00:49.816Z,18400.00
2022-11-16T15:01:49.687Z,17120.00
2022-11-16T15:02:51.863Z,15744.00
2022-11-16T15:03:49.755Z,14784.00
2022-11-16T15:04:49.656Z,13952.00
2022-11-16T15:05:49.606Z,13440.00
2022-11-16T15:06:49.986Z,12736.00
2022-11-16T15:07:49.617Z,11488.00
2022-11-16T15:08:49.614Z,10624.00
2022-11-16T15:09:49.620Z,9152.00
2022-11-16T15:10:52.657Z,9024.00
2022-11-16T15:11:49.574Z,8032.00
2022-11-16T15:12:49.598Z,6840.00
2022-11-16T15:13:49.566Z,5204.00
2022-11-16T15:14:49.788Z,3180.00
2022-11-16T15:15:49.548Z,2696.00
2022-11-16T15:16:49.619Z,2532.00
2022-11-16T15:17:49.524Z,2396.00
2022-11-16T15:18:49.500Z,2280.00
2022-11-16T15:19:49.537Z,2120.00
2022-11-16T15:20:49.573Z,1996.00
2022-11-16T15:21:49.449Z,1840.00
2022-11-16T15:22:49.509Z,1712.00
2022-11-16T15:24:15.416Z,1584.00
2022-11-16T15:24:50.430Z,1464.00
2022-11-16T15:25:49.457Z,1336.00
2022-11-16T15:26:49.429Z,1228.00
2022-11-16T15:27:49.431Z,1132.00
2022-11-16T15:28:50.256Z,1044.00
2022-11-16T15:29:49.423Z,960.00
2022-11-16T15:30:49.353Z,880.00
2022-11-16T15:31:49.365Z,804.00
2022-11-16T15:32:49.352Z,732.00
2022-11-16T15:33:49.346Z,668.00
2022-11-16T15:34:49.344Z,608.00
2022-11-16T15:35:49.314Z,556.00
2022-11-16T15:36:49.341Z,504.00
2022-11-16T15:37:49.271Z,464.00
2022-11-16T15:38:49.257Z,424.00
2022-11-16T15:39:49.293Z,384.00
2022-11-16T15:40:49.325Z,352.00
2022-11-16T15:41:49.219Z,320.00
2022-11-16T15:42:49.235Z,292.00
2022-11-16T15:44:11.747Z,264.00
2022-11-16T15:44:50.217Z,236.00
2022-11-16T15:45:49.195Z,212.00
2022-11-16T15:46:49.212Z,192.00
2022-11-16T15:47:49.162Z,172.00
2022-11-16T15:48:49.174Z,152.00
2022-11-16T15:49:49.201Z,136.00
2022-11-16T15:50:49.173Z,120.00
2022-11-16T15:51:49.207Z,104.00
2022-11-16T15:52:49.127Z,92.00
2022-11-16T15:53:49.088Z,84.00
2022-11-16T15:54:49.226Z,68.00
2022-11-16T15:55:49.247Z,56.00
2022-11-16T15:56:49.157Z,52.00
2022-11-16T15:57:49.198Z,44.00
2022-11-16T15:58:49.102Z,36.00
2022-11-16T15:59:49.054Z,32.00
2022-11-16T16:00:49.023Z,24.00
2022-11-16T16:01:49.173Z,24.00
2022-11-16T16:02:49.020Z,16.00
2022-11-16T16:03:49.041Z,16.00
2022-11-16T16:04:49.081Z,16.00
2022-11-16T16:05:49.054Z,12.00
2022-11-16T16:06:49.029Z,12.00
2022-11-16T16:07:49.100Z,8.00
2022-11-16T16:08:49.042Z,8.00
2022-11-16T16:09:49.067Z,8.00
2022-11-16T16:10:48.989Z,8.00
2022-11-16T16:11:48.939Z,4.00
2022-11-16T16:12:48.935Z,4.00
2022-11-16T16:13:48.987Z,4.00
2022-11-16T16:14:48.891Z,4.00
2022-11-16T16:15:49.231Z,4.00
2022-11-16T16:16:48.966Z,0.00
2022-11-16T16:17:49.040Z,0.00
2022-11-16T16:18:48.954Z,4.00
2022-11-16T16:19:49.021Z,4.00
2022-11-16T16:20:48.893Z,0.00
2022-11-16T16:21:48.837Z,0.00
2022-11-16T16:22:48.858Z,0.00
2022-11-16T16:23:48.766Z,0.00
2022-11-16T16:24:48.845Z,0.00
2022-11-16T16:25:50.712Z,0.00
2022-11-16T16:26:49.001Z,0.00
2022-11-16T16:27:48.908Z,0.00
2022-11-16T16:28:48.875Z,0.00
2022-11-16T16:29:48.840Z,0.00
2022-11-16T16:30:48.756Z,0.00
2022-11-16T16:31:48.711Z,0.00
2022-11-16T16:32:48.754Z,0.00
2022-11-16T16:33:48.855Z,0.00
2022-11-16T16:34:48.762Z,0.00
2022-11-16T16:35:49.085Z,0.00
2022-11-16T16:36:48.708Z,0.00
2022-11-16T16:37:48.664Z,0.00
2022-11-16T16:38:48.801Z,0.00
2022-11-16T16:39:48.879Z,0.00
2022-11-16T16:40:48.644Z,0.00
2022-11-16T16:41:48.753Z,0.00
2022-11-16T16:42:48.658Z,0.00
2022-11-16T16:43:48.889Z,0.00
2022-11-16T16:44:48.763Z,0.00
2022-11-16T16:45:48.593Z,0.00
2022-11-16T16:46:48.593Z,0.00
2022-11-16T16:47:48.589Z,0.00
2022-11-16T16:48:48.581Z,0.00
2022-11-16T16:49:48.531Z,0.00
2022-11-16T16:50:48.593Z,0.00
2022-11-16T16:51:48.679Z,0.00
2022-11-16T16:52:48.485Z,0.00
2022-11-16T16:53:48.508Z,0.00
2022-11-16T16:54:48.484Z,0.00
2022-11-16T16:55:48.442Z,0.00
2022-11-16T16:56:48.480Z,0.00
2022-11-16T16:57:48.809Z,0.00
2022-11-16T16:58:48.528Z,0.00
2022-11-16T16:59:48.747Z,0.00
2022-11-16T17:00:48.608Z,0.00
2022-11-16T17:01:48.400Z,0.00
2022-11-16T17:02:48.423Z,0.00
2022-11-16T17:03:48.368Z,0.00
2022-11-16T17:04:48.595Z,0.00
2022-11-16T17:05:48.369Z,0.00
2022-11-16T17:06:48.339Z,0.00
2022-11-16T17:07:48.346Z,0.00
2022-11-16T17:08:48.363Z,0.00
2022-11-16T17:09:48.309Z,0.00
2022-11-16T17:10:48.275Z,0.00
2022-11-16T17:11:48.315Z,0.00
2022-11-16T17:12:48.241Z,0.00
2022-11-16T17:13:48.369Z,0.00
2022-11-16T17:14:48.244Z,0.00
2022-11-16T17:15:48.225Z,0.00
2022-11-16T17:16:48.314Z,0.00
2022-11-16T17:17:48.474Z,0.00
2022-11-16T17:18:48.229Z,0.00
2022-11-16T17:19:48.184Z,0.00
2022-11-16T17:20:48.177Z,0.00
2022-11-16T17:21:48.182Z,0.00
2022-11-16T17:22:48.159Z,0.00
2022-11-16T17:23:48.185Z,0.00
2022-11-16T17:24:48.121Z,0.00
2022-11-16T17:25:48.143Z,0.00
2022-11-16T17:26:48.196Z,0.00
2022-11-16T17:27:48.114Z,0.00
2022-11-16T17:28:48.080Z,0.00
2022-11-16T17:29:48.233Z,0.00
2022-11-16T17:30:48.089Z,0.00
2022-11-16T17:31:48.095Z,0.00
2022-11-16T17:32:48.093Z,0.00
2022-11-16T17:33:48.075Z,0.00
2022-11-16T17:34:47.996Z,0.00
2022-11-16T17:35:48.058Z,0.00
2022-11-16T17:36:47.985Z,0.00
2022-11-16T17:37:48.027Z,0.00
2022-11-16T17:38:47.977Z,0.00
2022-11-16T17:39:47.937Z,0.00
2022-11-16T17:40:47.963Z,0.00
2022-11-16T17:41:47.980Z,0.00
2022-11-16T17:42:47.965Z,0.00
2022-11-16T17:43:47.951Z,0.00
2022-11-16T17:44:47.915Z,0.00
2022-11-16T17:45:47.893Z,0.00
2022-11-16T17:46:47.905Z,0.00
2022-11-16T17:47:47.882Z,0.00
2022-11-16T17:48:47.949Z,0.00
2022-11-16T17:49:47.877Z,0.00
2022-11-16T17:50:47.869Z,0.00
2022-11-16T17:51:47.892Z,0.00
2022-11-16T17:52:47.855Z,0.00
2022-11-16T17:53:47.807Z,0.00